Time;durP1;ratioP1;P1;durP2;ratioP2;P2;SDS_P1;SDS_P2;PMS_P1;PMS_P2;Temp;Humidity;BMP_temperature;BMP_pressure;BME280_temperature;BME280_humidity;BME280_pressure;Samples;Min_cycle;Max_cycle;Signal;HPM_P1;HPM_P2
2023/01/30 00:01:38;;;;;;;15.20;11.15;;;4.40;62.90;;;;;;4970750;28;20283;-72
2023/01/30 00:04:05;;;;;;;15.07;11.43;;;4.30;62.90;;;;;;4969341;28;20209;-73
2023/01/30 00:06:33;;;;;;;17.40;12.40;;;4.40;62.90;;;;;;4967134;28;20267;-71
2023/01/30 00:09:00;;;;;;;15.98;11.98;;;4.50;62.80;;;;;;4970920;28;20306;-71
2023/01/30 00:11:28;;;;;;;15.77;11.23;;;4.50;62.80;;;;;;4963659;28;20229;-70
2023/01/30 00:13:55;;;;;;;18.20;11.82;;;4.50;62.60;;;;;;4972437;28;20246;-73
2023/01/30 00:16:22;;;;;;;16.35;11.63;;;4.60;62.30;;;;;;4953619;28;20237;-72
2023/01/30 00:18:49;;;;;;;15.38;11.52;;;4.50;62.30;;;;;;4952860;28;20705;-72
2023/01/30 00:21:16;;;;;;;13.85;11.25;;;4.40;62.70;;;;;;4963614;28;20300;-72
2023/01/30 00:23:43;;;;;;;15.82;11.80;;;4.30;62.70;;;;;;4970379;28;20208;-72
2023/01/30 00:26:11;;;;;;;15.48;11.70;;;4.50;62.90;;;;;;4967271;28;20776;-72
2023/01/30 00:28:39;;;;;;;18.38;12.73;;;4.40;62.90;;;;;;4956076;28;20205;-71
2023/01/30 00:31:07;;;;;;;15.02;11.77;;;4.50;62.90;;;;;;4952120;28;20251;-73
2023/01/30 00:33:36;;;;;;;16.85;12.18;;;4.50;62.80;;;;;;4969666;28;20247;-71
2023/01/30 00:36:04;;;;;;;16.77;12.40;;;4.60;62.90;;;;;;4970605;28;20212;-72
2023/01/30 00:38:31;;;;;;;17.20;12.07;;;4.60;62.80;;;;;;4970452;28;20263;-71
2023/01/30 00:40:58;;;;;;;16.10;11.73;;;4.60;62.70;;;;;;4970506;28;20587;-71
2023/01/30 00:49:05;;;;;;;17.30;12.10;;;4.50;63.00;;;;;;4964065;28;20200;-71
2023/01/30 00:51:32;;;;;;;16.77;12.52;;;4.50;63.10;;;;;;4969874;28;20599;-71
2023/01/30 00:53:59;;;;;;;19.92;13.10;;;4.50;62.80;;;;;;4968446;28;20441;-71
2023/01/30 00:56:26;;;;;;;17.30;11.85;;;4.50;62.90;;;;;;4969995;28;20223;-71
2023/01/30 00:58:53;;;;;;;17.20;12.05;;;4.40;62.90;;;;;;4969147;28;20308;-73
2023/01/30 01:01:21;;;;;;;19.20;13.10;;;4.30;63.10;;;;;;4951148;28;20207;-71
2023/01/30 01:03:48;;;;;;;17.90;12.20;;;4.30;63.70;;;;;;4950554;29;20219;-72
2023/01/30 01:06:15;;;;;;;17.83;12.73;;;4.30;64.10;;;;;;4951600;28;20304;-71
2023/01/30 01:08:42;;;;;;;19.33;12.40;;;4.10;65.00;;;;;;4950825;29;20724;-71
2023/01/30 01:11:09;;;;;;;20.08;12.95;;;4.10;64.40;;;;;;4965929;28;20227;-72
2023/01/30 01:13:36;;;;;;;20.60;12.93;;;4.20;64.70;;;;;;4950449;29;20239;-72
2023/01/30 01:16:02;;;;;;;16.80;12.27;;;4.10;65.00;;;;;;4955795;28;20296;-71
2023/01/30 01:18:32;;;;;;;18.75;13.60;;;3.90;65.20;;;;;;4953282;28;20205;-71
2023/01/30 01:20:59;;;;;;;18.98;12.90;;;3.90;65.30;;;;;;4955677;28;20225;-72
2023/01/30 01:23:26;;;;;;;17.88;12.35;;;3.90;65.40;;;;;;4969839;28;20239;-72
2023/01/30 01:25:53;;;;;;;20.13;13.70;;;4.00;65.30;;;;;;4966458;28;20299;-71
2023/01/30 01:28:21;;;;;;;18.55;13.65;;;4.20;64.80;;;;;;4953050;28;20233;-73
2023/01/30 01:30:49;;;;;;;17.83;12.77;;;4.20;64.90;;;;;;4969439;28;20210;-70
2023/01/30 01:33:16;;;;;;;18.00;12.73;;;4.40;63.90;;;;;;4968400;28;20311;-72
2023/01/30 01:35:46;;;;;;;17.40;12.57;;;4.40;63.70;;;;;;4967319;28;20239;-73
2023/01/30 01:38:14;;;;;;;18.75;12.88;;;4.50;63.60;;;;;;4951704;28;20252;-71
2023/01/30 01:41:05;;;;;;;17.80;12.60;;;4.50;63.50;;;;;;4963205;28;20212;-72
2023/01/30 01:43:34;;;;;;;17.08;12.20;;;4.40;63.70;;;;;;4967835;28;20223;-72
2023/01/30 01:46:06;;;;;;;21.17;13.10;;;4.50;64.10;;;;;;4963957;28;20684;-71
2023/01/30 01:48:37;;;;;;;18.48;13.50;;;4.40;63.90;;;;;;4968347;28;20229;-72
2023/01/30 01:51:10;;;;;;;18.75;13.02;;;4.40;63.50;;;;;;4965593;28;20310;-72
2023/01/30 01:53:43;;;;;;;19.23;13.10;;;4.50;63.50;;;;;;4969604;28;20232;-72
2023/01/30 01:56:13;;;;;;;17.92;12.23;;;4.40;63.70;;;;;;4969166;28;20232;-71
2023/01/30 01:58:45;;;;;;;18.55;12.88;;;4.30;64.10;;;;;;4969615;28;20299;-73
2023/01/30 02:01:13;;;;;;;17.08;11.93;;;4.30;64.40;;;;;;4969271;28;20213;-74
2023/01/30 02:03:45;;;;;;;15.65;11.18;;;4.30;64.30;;;;;;4969347;28;20201;-74
2023/01/30 02:06:14;;;;;;;20.00;12.00;;;4.30;64.40;;;;;;4969578;28;20216;-74
2023/01/30 02:08:45;;;;;;;16.55;11.52;;;4.30;64.30;;;;;;4969310;28;20227;-74
2023/01/30 02:11:18;;;;;;;17.88;11.90;;;4.40;64.30;;;;;;4969676;28;20215;-73
2023/01/30 02:13:46;;;;;;;16.50;10.80;;;4.50;63.90;;;;;;4968787;28;20232;-73
2023/01/30 02:16:13;;;;;;;17.02;11.77;;;4.50;63.60;;;;;;4969435;28;20270;-74
2023/01/30 02:18:45;;;;;;;17.83;12.65;;;4.50;63.40;;;;;;4969316;28;20203;-74
2023/01/30 02:21:39;;;;;;;16.25;11.32;;;4.50;63.60;;;;;;4969165;28;20236;-75
2023/01/30 02:24:32;;;;;;;15.27;10.93;;;4.40;63.80;;;;;;4953865;28;20711;-74
2023/01/30 02:27:15;;;;;;;17.13;11.52;;;4.30;64.20;;;;;;4965573;28;20212;-74
2023/01/30 02:30:19;;;;;;;15.93;12.18;;;4.30;64.20;;;;;;4970989;28;20243;-74
2023/01/30 02:32:58;;;;;;;16.83;11.40;;;4.50;64.00;;;;;;4971125;28;20255;-73
2023/01/30 02:35:42;;;;;;;15.48;11.77;;;4.50;64.00;;;;;;4956721;28;20214;-73
2023/01/30 02:38:20;;;;;;;16.63;11.60;;;4.50;64.00;;;;;;4965806;28;20201;-73
2023/01/30 02:40:57;;;;;;;16.10;11.40;;;4.60;63.80;;;;;;4956021;28;20208;-73
2023/01/30 02:43:30;;;;;;;17.45;12.25;;;4.60;63.60;;;;;;4955008;28;20242;-74
2023/01/30 02:46:02;;;;;;;17.48;11.82;;;4.60;63.60;;;;;;4971102;28;20216;-73
2023/01/30 02:48:37;;;;;;;15.55;10.93;;;4.60;63.40;;;;;;4967871;28;20204;-74
2023/01/30 02:51:07;;;;;;;16.15;11.40;;;4.60;63.40;;;;;;4971363;28;20231;-74
2023/01/30 02:53:35;;;;;;;14.65;10.70;;;4.50;63.60;;;;;;4972943;28;20236;-73
2023/01/30 02:56:02;;;;;;;16.65;12.18;;;4.60;63.60;;;;;;4963806;28;20212;-74
2023/01/30 02:58:33;;;;;;;16.50;10.88;;;4.60;63.50;;;;;;4952953;28;20205;-73
2023/01/30 03:01:34;;;;;;;16.77;12.00;;;4.60;63.40;;;;;;4971831;28;20209;-73
2023/01/30 03:04:28;;;;;;;15.27;11.40;;;4.60;63.40;;;;;;4971176;28;20208;-73
2023/01/30 03:07:09;;;;;;;13.43;10.38;;;4.50;63.50;;;;;;4970676;28;20465;-74
2023/01/30 03:09:46;;;;;;;14.27;10.50;;;4.50;63.80;;;;;;4964778;28;20205;-73
2023/01/30 03:12:22;;;;;;;16.63;11.65;;;4.50;63.80;;;;;;4966317;28;20688;-73
2023/01/30 03:14:53;;;;;;;14.13;10.35;;;4.60;63.70;;;;;;4937141;28;20680;-74
2023/01/30 03:17:22;;;;;;;16.08;11.13;;;4.70;63.50;;;;;;4951846;28;20213;-74
2023/01/30 03:19:52;;;;;;;15.60;11.05;;;4.70;63.00;;;;;;4961892;28;20790;-74
2023/01/30 03:22:20;;;;;;;14.23;10.48;;;4.60;63.00;;;;;;4972127;28;20201;-74
2023/01/30 03:24:47;;;;;;;14.63;10.75;;;4.40;63.30;;;;;;4953930;28;20201;-74
2023/01/30 03:27:15;;;;;;;13.07;9.75;;;4.40;63.40;;;;;;4954579;28;20202;-74
2023/01/30 03:29:41;;;;;;;14.20;10.43;;;4.30;63.70;;;;;;4972066;28;20205;-73
2023/01/30 03:32:08;;;;;;;16.08;10.10;;;4.30;64.10;;;;;;4970876;28;20208;-73
2023/01/30 03:34:35;;;;;;;15.60;11.52;;;4.20;64.40;;;;;;4957653;28;20566;-73
2023/01/30 03:37:04;;;;;;;15.43;10.60;;;4.20;65.00;;;;;;4967619;28;20200;-73
2023/01/30 03:39:31;;;;;;;14.07;10.68;;;4.20;65.10;;;;;;4964985;28;20232;-72
2023/01/30 03:41:58;;;;;;;15.07;10.60;;;4.20;65.00;;;;;;4952484;28;20198;-73
2023/01/30 03:44:25;;;;;;;14.52;11.35;;;4.20;65.10;;;;;;4956342;28;20201;-74
2023/01/30 03:46:51;;;;;;;14.00;10.80;;;4.00;65.50;;;;;;4968234;28;20209;-72
2023/01/30 03:49:19;;;;;;;13.80;10.65;;;4.10;65.50;;;;;;4967326;28;20200;-73
2023/01/30 03:51:46;;;;;;;14.40;10.75;;;4.20;65.40;;;;;;4971528;28;20212;-74
2023/01/30 03:54:14;;;;;;;14.35;10.70;;;4.30;64.90;;;;;;4970832;28;20700;-72
2023/01/30 03:56:41;;;;;;;13.90;10.40;;;4.40;64.70;;;;;;4971098;28;20552;-74
2023/01/30 03:59:08;;;;;;;15.40;10.52;;;4.40;64.50;;;;;;4970983;28;20235;-73
2023/01/30 04:01:35;;;;;;;14.15;10.23;;;4.40;64.30;;;;;;4971454;28;20323;-73
2023/01/30 04:04:01;;;;;;;14.02;10.32;;;4.30;64.50;;;;;;4971360;28;20638;-73
2023/01/30 04:06:28;;;;;;;15.70;10.80;;;4.30;64.50;;;;;;4971329;28;20215;-72
2023/01/30 04:08:55;;;;;;;15.07;10.52;;;4.30;65.30;;;;;;4970337;28;20311;-75
2023/01/30 04:11:23;;;;;;;14.45;10.77;;;4.30;64.80;;;;;;4970838;28;20211;-73
2023/01/30 04:13:50;;;;;;;14.73;11.23;;;4.40;64.90;;;;;;4970692;28;20819;-72
2023/01/30 04:16:20;;;;;;;14.95;10.77;;;4.50;64.30;;;;;;4970687;28;20212;-74
2023/01/30 04:18:47;;;;;;;14.00;10.23;;;4.60;64.20;;;;;;4968548;28;20213;-74
2023/01/30 04:21:14;;;;;;;13.57;10.35;;;4.60;63.90;;;;;;4969104;28;20211;-74
2023/01/30 04:23:41;;;;;;;14.75;10.32;;;4.50;63.80;;;;;;4970696;28;20208;-74
2023/01/30 04:26:09;;;;;;;13.77;10.13;;;4.40;63.80;;;;;;4965206;28;20205;-74
2023/01/30 04:28:37;;;;;;;14.23;10.07;;;4.50;64.00;;;;;;4966959;28;20205;-74
2023/01/30 04:31:05;;;;;;;12.98;9.70;;;4.60;63.90;;;;;;4951268;28;20665;-74
2023/01/30 04:33:34;;;;;;;13.02;9.90;;;4.60;63.60;;;;;;4965853;28;20235;-74
2023/01/30 04:36:02;;;;;;;13.43;9.88;;;4.60;63.70;;;;;;4960614;28;20580;-74
2023/01/30 04:38:31;;;;;;;12.63;9.35;;;4.60;63.70;;;;;;4953282;28;20583;-73
2023/01/30 04:40:58;;;;;;;13.75;9.15;;;4.60;63.30;;;;;;4953533;28;20256;-74
2023/01/30 04:43:26;;;;;;;13.25;9.85;;;4.60;63.40;;;;;;4964018;28;20476;-74
2023/01/30 04:45:55;;;;;;;14.32;10.77;;;4.60;63.70;;;;;;4963635;28;20216;-73
2023/01/30 04:48:23;;;;;;;11.20;9.13;;;4.50;63.70;;;;;;4969883;28;20239;-73
2023/01/30 04:50:52;;;;;;;12.63;9.73;;;4.60;63.80;;;;;;4959214;28;20205;-73
2023/01/30 04:53:19;;;;;;;12.25;9.13;;;4.80;63.50;;;;;;4958013;28;20232;-74
2023/01/30 04:55:47;;;;;;;14.18;10.00;;;5.00;62.90;;;;;;4958631;28;20236;-73
2023/01/30 04:58:14;;;;;;;12.27;8.68;;;4.90;62.50;;;;;;4964471;28;20228;-74
2023/01/30 05:00:41;;;;;;;13.77;10.00;;;4.80;62.70;;;;;;4954925;28;20204;-73
2023/01/30 05:03:09;;;;;;;11.70;9.75;;;4.80;63.10;;;;;;4957380;28;20236;-73
2023/01/30 05:05:36;;;;;;;13.48;8.88;;;4.90;63.10;;;;;;4966980;28;20205;-73
2023/01/30 05:08:03;;;;;;;12.07;8.88;;;4.80;63.00;;;;;;4952773;28;20282;-73
2023/01/30 05:10:30;;;;;;;12.75;8.82;;;4.80;63.00;;;;;;4956640;28;20255;-74
2023/01/30 05:13:01;;;;;;;10.50;8.02;;;4.60;63.00;;;;;;4968272;28;20235;-73
2023/01/30 05:15:28;;;;;;;9.98;8.00;;;4.60;64.00;;;;;;4968963;28;20208;-73
2023/01/30 05:17:55;;;;;;;12.45;8.80;;;4.60;63.30;;;;;;4969090;28;20209;-74
2023/01/30 05:20:23;;;;;;;13.18;8.55;;;4.60;63.30;;;;;;4954875;28;20200;-73
2023/01/30 05:22:50;;;;;;;10.27;8.23;;;4.60;63.10;;;;;;4952370;28;20208;-73
2023/01/30 05:25:17;;;;;;;11.93;8.80;;;4.70;63.20;;;;;;4950732;28;20688;-73
2023/01/30 05:27:43;;;;;;;12.25;7.97;;;4.70;63.40;;;;;;4956772;28;20215;-73
2023/01/30 05:30:11;;;;;;;12.40;9.13;;;4.60;63.20;;;;;;4968052;28;20232;-73
2023/01/30 05:32:38;;;;;;;13.55;9.07;;;4.70;63.30;;;;;;4966874;28;20204;-73
2023/01/30 05:35:06;;;;;;;12.40;8.60;;;4.70;63.30;;;;;;4962393;28;20204;-72
2023/01/30 05:37:34;;;;;;;12.38;8.65;;;4.70;63.30;;;;;;4951231;28;20233;-72
2023/01/30 05:40:01;;;;;;;11.57;9.20;;;4.70;63.40;;;;;;4967259;28;20209;-72
2023/01/30 05:42:28;;;;;;;12.23;8.32;;;4.70;63.70;;;;;;4961296;28;20215;-73
2023/01/30 05:44:54;;;;;;;12.02;8.60;;;4.80;63.60;;;;;;4968508;28;20233;-74
2023/01/30 05:47:21;;;;;;;12.57;8.32;;;4.80;63.30;;;;;;4958993;28;20197;-73
2023/01/30 05:49:48;;;;;;;11.30;8.43;;;4.60;63.80;;;;;;4969644;28;20225;-74
2023/01/30 05:52:15;;;;;;;10.60;7.97;;;4.70;64.00;;;;;;4969123;28;20232;-73
2023/01/30 05:54:43;;;;;;;11.02;8.05;;;4.70;64.10;;;;;;4952559;28;20598;-74
2023/01/30 05:57:10;;;;;;;13.15;9.05;;;4.60;64.20;;;;;;4969310;28;20596;-73
2023/01/30 05:59:36;;;;;;;11.55;8.13;;;4.70;64.50;;;;;;4969668;28;20226;-73
2023/01/30 06:02:03;;;;;;;11.80;9.00;;;4.70;64.60;;;;;;4969272;28;20448;-73
2023/01/30 06:04:30;;;;;;;11.45;8.80;;;4.50;64.80;;;;;;4973139;28;20234;-73
2023/01/30 06:06:57;;;;;;;11.50;8.48;;;4.40;65.50;;;;;;4972872;28;20228;-72
2023/01/30 06:09:23;;;;;;;13.30;8.65;;;4.40;65.90;;;;;;4972887;28;20208;-73
2023/01/30 06:11:54;;;;;;;11.80;8.90;;;4.40;65.80;;;;;;4973178;28;20250;-73
2023/01/30 06:14:20;;;;;;;13.18;8.85;;;4.50;65.80;;;;;;4973248;28;20225;-74
2023/01/30 06:16:47;;;;;;;11.52;8.82;;;4.40;66.20;;;;;;4973725;28;20216;-73
2023/01/30 06:19:14;;;;;;;11.55;8.20;;;4.40;66.80;;;;;;4960457;28;20205;-74
2023/01/30 06:21:41;;;;;;;11.18;8.65;;;4.30;67.30;;;;;;4955251;28;20214;-73
2023/01/30 06:24:08;;;;;;;11.63;8.20;;;4.30;67.80;;;;;;4953753;28;20232;-74
2023/01/30 06:26:35;;;;;;;10.88;8.35;;;4.40;68.00;;;;;;4968896;28;20668;-73
2023/01/30 06:29:03;;;;;;;13.15;9.45;;;4.40;67.90;;;;;;4972935;28;20222;-73
2023/01/30 06:31:30;;;;;;;11.93;8.98;;;4.40;68.10;;;;;;4970328;28;20229;-75
2023/01/30 06:33:57;;;;;;;11.82;8.43;;;4.40;68.10;;;;;;4957648;28;20235;-74
2023/01/30 06:36:24;;;;;;;11.05;8.13;;;4.50;68.50;;;;;;4972835;28;20205;-74
2023/01/30 06:38:50;;;;;;;11.13;8.27;;;4.60;68.20;;;;;;4953502;28;20264;-74
2023/01/30 06:41:17;;;;;;;11.43;8.15;;;4.60;68.10;;;;;;4964084;28;20212;-73
2023/01/30 06:43:44;;;;;;;9.30;7.80;;;4.50;68.00;;;;;;4970664;28;20585;-73
2023/01/30 06:46:12;;;;;;;13.98;8.63;;;4.60;68.10;;;;;;4954752;28;20205;-73
2023/01/30 06:48:39;;;;;;;10.00;8.15;;;4.60;68.50;;;;;;4965559;28;20791;-73
2023/01/30 06:51:06;;;;;;;13.68;8.75;;;4.60;67.50;;;;;;4957416;28;20213;-73
2023/01/30 06:53:33;;;;;;;11.38;8.23;;;4.70;67.20;;;;;;4964068;28;20228;-73
2023/01/30 06:56:01;;;;;;;13.00;8.68;;;4.70;67.10;;;;;;4971858;28;20663;-74
2023/01/30 06:58:28;;;;;;;12.52;8.27;;;4.60;67.30;;;;;;4972327;28;20287;-73
2023/01/30 07:00:55;;;;;;;11.70;8.88;;;4.60;67.80;;;;;;4964016;28;20350;-74
2023/01/30 07:03:24;;;;;;;11.68;8.18;;;4.70;67.70;;;;;;4962942;28;20449;-75
2023/01/30 07:05:51;;;;;;;11.35;8.07;;;4.80;67.50;;;;;;4963409;28;20260;-74
2023/01/30 07:08:18;;;;;;;14.10;8.88;;;4.60;67.40;;;;;;4940558;28;20200;-74
2023/01/30 07:10:45;;;;;;;11.75;8.25;;;4.60;67.60;;;;;;4967541;28;20196;-74
2023/01/30 07:13:13;;;;;;;16.50;11.40;;;4.60;67.70;;;;;;4952797;28;20236;-71
2023/01/30 07:15:39;;;;;;;11.23;8.27;;;4.50;67.70;;;;;;4961438;28;20204;-72
2023/01/30 07:18:06;;;;;;;12.27;8.50;;;4.60;67.40;;;;;;4971977;28;20238;-72
2023/01/30 07:20:35;;;;;;;11.52;8.82;;;4.70;67.30;;;;;;4971071;28;20232;-73
2023/01/30 07:23:01;;;;;;;10.80;8.50;;;4.60;67.10;;;;;;4959735;28;20499;-73
2023/01/30 07:25:31;;;;;;;11.57;8.68;;;4.70;68.40;;;;;;4966183;28;20207;-72
2023/01/30 07:28:00;;;;;;;9.63;7.28;;;4.50;67.50;;;;;;4972101;28;20208;-71
2023/01/30 07:30:29;;;;;;;11.52;8.75;;;4.70;67.70;;;;;;4972906;28;20215;-73
2023/01/30 07:33:01;;;;;;;9.15;7.93;;;4.70;67.40;;;;;;4961775;28;20706;-73
2023/01/30 07:35:31;;;;;;;10.15;8.00;;;4.70;67.60;;;;;;4959407;28;20879;-72
2023/01/30 07:37:59;;;;;;;9.10;7.25;;;4.60;67.90;;;;;;4968945;28;20669;-72
2023/01/30 07:40:26;;;;;;;11.18;8.73;;;4.70;68.30;;;;;;4970728;28;20347;-72
2023/01/30 07:42:57;;;;;;;11.23;7.80;;;4.60;68.60;;;;;;4968671;28;20208;-73
2023/01/30 07:45:24;;;;;;;9.65;7.75;;;4.50;68.40;;;;;;4971404;28;20208;-72
2023/01/30 07:47:51;;;;;;;10.27;7.63;;;4.50;69.10;;;;;;4972197;28;20201;-71
2023/01/30 07:50:18;;;;;;;11.80;8.15;;;4.60;68.80;;;;;;4952955;28;20216;-72
2023/01/30 07:52:45;;;;;;;11.95;8.68;;;4.70;68.40;;;;;;4954791;28;20300;-71
2023/01/30 07:55:14;;;;;;;10.48;7.85;;;5.00;69.20;;;;;;4954114;29;20244;-73
2023/01/30 07:57:41;;;;;;;13.15;7.90;;;4.80;68.10;;;;;;4954571;28;20239;-72
2023/01/30 08:00:10;;;;;;;10.90;7.47;;;4.70;68.20;;;;;;4954309;28;20209;-72
2023/01/30 08:02:37;;;;;;;12.25;7.60;;;4.70;69.50;;;;;;4960012;28;20208;-72
2023/01/30 08:05:05;;;;;;;11.35;8.27;;;4.70;69.10;;;;;;4963015;28;20222;-72
2023/01/30 08:07:33;;;;;;;10.32;7.82;;;4.60;69.20;;;;;;4972136;28;20219;-72
2023/01/30 08:10:00;;;;;;;11.05;7.40;;;4.80;68.90;;;;;;4971265;28;20235;-73
2023/01/30 08:12:28;;;;;;;9.93;7.40;;;4.70;68.60;;;;;;4970473;28;20204;-71
2023/01/30 08:14:55;;;;;;;12.38;7.75;;;4.80;68.90;;;;;;4960932;28;20231;-71
2023/01/30 08:17:22;;;;;;;12.73;7.90;;;4.70;68.80;;;;;;4970796;28;20294;-71
2023/01/30 08:19:50;;;;;;;11.00;8.35;;;4.70;68.70;;;;;;4970455;28;20630;-73
2023/01/30 08:22:17;;;;;;;11.13;7.80;;;4.60;69.10;;;;;;4969069;28;20268;-73
2023/01/30 08:24:44;;;;;;;11.60;7.97;;;4.70;69.60;;;;;;4959804;28;20634;-73
2023/01/30 08:27:11;;;;;;;10.55;8.00;;;4.70;69.40;;;;;;4914678;29;20569;-73
2023/01/30 08:29:39;;;;;;;11.57;8.38;;;4.90;68.80;;;;;;4955017;28;20288;-73
2023/01/30 08:32:06;;;;;;;11.95;8.00;;;4.80;68.70;;;;;;4956283;28;20699;-72
2023/01/30 08:34:33;;;;;;;11.00;7.88;;;5.00;68.70;;;;;;4951548;28;20243;-72
2023/01/30 08:37:00;;;;;;;11.77;8.20;;;5.00;68.50;;;;;;4969907;28;20212;-72
2023/01/30 08:39:27;;;;;;;12.27;8.50;;;5.00;68.00;;;;;;4969954;28;20212;-71
2023/01/30 08:41:54;;;;;;;10.40;7.82;;;5.10;68.50;;;;;;4969624;28;20214;-71
2023/01/30 08:44:20;;;;;;;10.93;8.07;;;5.10;68.40;;;;;;4962131;28;20204;-70
2023/01/30 08:46:49;;;;;;;10.95;8.15;;;5.10;67.90;;;;;;4963071;28;20216;-71
2023/01/30 08:49:15;;;;;;;10.73;8.18;;;5.20;67.80;;;;;;4954622;28;20317;-73
2023/01/30 08:51:42;;;;;;;12.35;7.80;;;5.20;67.80;;;;;;4969393;28;20268;-71
2023/01/30 08:54:09;;;;;;;9.45;7.32;;;5.10;67.70;;;;;;4967543;28;20307;-71
2023/01/30 08:56:36;;;;;;;12.05;7.80;;;5.10;68.00;;;;;;4964024;28;20295;-71
2023/01/30 08:59:03;;;;;;;11.35;7.85;;;5.00;68.30;;;;;;4950959;28;20240;-72
2023/01/30 09:01:30;;;;;;;10.70;8.15;;;4.90;68.40;;;;;;4950488;28;20216;-72
2023/01/30 09:03:58;;;;;;;13.20;9.70;;;5.00;68.50;;;;;;4950901;29;20723;-72
2023/01/30 09:06:25;;;;;;;10.90;8.02;;;5.10;68.60;;;;;;4969261;28;20232;-71
2023/01/30 09:08:52;;;;;;;10.38;7.80;;;5.20;68.60;;;;;;4969786;28;20240;-72
2023/01/30 09:11:19;;;;;;;10.40;7.57;;;5.10;68.30;;;;;;4970157;28;20287;-72
2023/01/30 09:13:46;;;;;;;9.88;7.32;;;5.00;68.50;;;;;;4979580;28;20232;-71
2023/01/30 09:16:13;;;;;;;11.35;8.38;;;4.90;68.80;;;;;;4974750;28;20247;-72
2023/01/30 09:18:40;;;;;;;13.40;9.30;;;5.00;68.60;;;;;;4965009;28;20241;-72
2023/01/30 09:21:10;;;;;;;11.00;8.23;;;5.10;68.60;;;;;;4958843;28;20232;-72
2023/01/30 09:23:37;;;;;;;10.75;8.50;;;5.20;68.30;;;;;;4969625;28;20404;-71
2023/01/30 09:26:05;;;;;;;13.15;8.05;;;5.10;68.20;;;;;;4966563;28;20695;-73
2023/01/30 09:28:33;;;;;;;12.30;8.05;;;4.90;68.40;;;;;;4967864;28;20228;-70
2023/01/30 09:31:01;;;;;;;10.63;8.55;;;5.00;68.70;;;;;;4968071;28;20212;-72
2023/01/30 09:33:28;;;;;;;13.20;8.88;;;5.10;68.60;;;;;;4968609;28;20270;-72
2023/01/30 09:35:56;;;;;;;13.52;9.15;;;5.10;68.60;;;;;;4968946;28;20232;-71
2023/01/30 09:38:24;;;;;;;12.38;9.02;;;5.30;68.80;;;;;;4971015;28;20204;-71
2023/01/30 09:41:10;;;;;;;12.00;9.02;;;5.30;68.60;;;;;;4971913;28;20215;-72
2023/01/30 09:43:54;;;;;;;11.27;8.32;;;5.40;68.90;;;;;;4972432;28;20223;-71
2023/01/30 09:46:31;;;;;;;11.60;8.80;;;5.30;68.90;;;;;;4972582;28;20212;-71
2023/01/30 09:49:08;;;;;;;11.38;8.43;;;5.20;69.20;;;;;;4972626;28;20212;-73
2023/01/30 09:51:58;;;;;;;12.50;8.02;;;5.30;68.90;;;;;;4972608;28;20266;-70
2023/01/30 09:54:30;;;;;;;12.73;8.63;;;5.30;69.50;;;;;;4972490;28;20238;-71
2023/01/30 09:57:10;;;;;;;10.43;8.25;;;5.20;69.70;;;;;;4972151;28;20236;-70
2023/01/30 09:59:47;;;;;;;11.93;9.52;;;5.10;70.40;;;;;;4972596;28;20295;-71
2023/01/30 10:02:39;;;;;;;14.13;9.48;;;5.10;70.70;;;;;;4937650;28;20298;-71
2023/01/30 10:05:06;;;;;;;13.20;9.10;;;5.20;70.80;;;;;;4970266;28;20213;-71
2023/01/30 10:07:56;;;;;;;15.55;9.85;;;5.40;70.50;;;;;;4972456;28;20208;-71
2023/01/30 10:10:46;;;;;;;14.43;10.18;;;5.50;70.40;;;;;;4969136;28;20653;-71
2023/01/30 10:13:27;;;;;;;13.48;9.07;;;5.50;70.10;;;;;;4971919;28;20206;-72
2023/01/30 10:15:59;;;;;;;14.63;8.80;;;5.60;70.40;;;;;;4972262;28;20307;-73
2023/01/30 10:19:04;;;;;;;12.45;9.00;;;5.60;71.30;;;;;;4972239;28;20306;-72
2023/01/30 10:21:42;;;;;;;11.07;8.30;;;5.60;70.70;;;;;;4948549;28;20295;-71
2023/01/30 10:24:31;;;;;;;11.77;8.40;;;5.40;71.00;;;;;;4971390;28;20211;-71
2023/01/30 10:26:59;;;;;;;10.52;7.90;;;5.40;71.50;;;;;;4971830;28;20324;-71
2023/01/30 10:29:30;;;;;;;13.48;8.20;;;5.40;71.90;;;;;;4972302;28;20303;-71
2023/01/30 10:32:02;;;;;;;10.88;8.18;;;5.40;72.60;;;;;;4971748;28;20852;-72
2023/01/30 10:34:33;;;;;;;12.38;8.35;;;5.40;72.80;;;;;;4971270;28;20275;-73
2023/01/30 10:37:07;;;;;;;11.73;7.82;;;5.50;73.00;;;;;;4972560;28;20331;-71
2023/01/30 10:39:41;;;;;;;11.23;8.57;;;5.40;73.20;;;;;;4971978;28;20684;-72
2023/01/30 10:42:12;;;;;;;11.15;8.02;;;5.40;73.30;;;;;;4972490;28;20496;-71
2023/01/30 10:44:41;;;;;;;12.25;9.15;;;5.50;73.50;;;;;;4972402;28;20210;-71
2023/01/30 10:47:41;;;;;;;11.32;7.95;;;5.50;73.80;;;;;;4972489;28;20892;-72
2023/01/30 10:50:15;;;;;;;11.25;8.35;;;5.50;74.10;;;;;;4970966;28;20627;-72
2023/01/30 10:52:49;;;;;;;11.65;8.02;;;5.40;74.70;;;;;;4971117;28;20220;-71
2023/01/30 10:55:26;;;;;;;11.95;8.35;;;5.30;75.30;;;;;;4971124;28;20268;-72
2023/01/30 10:58:01;;;;;;;13.50;9.13;;;5.40;75.50;;;;;;4971581;28;20244;-71
2023/01/30 11:00:31;;;;;;;12.48;8.60;;;5.30;75.50;;;;;;4971143;28;20732;-71
2023/01/30 11:03:11;;;;;;;11.90;8.13;;;5.40;75.40;;;;;;4971748;28;20946;-71
2023/01/30 11:05:45;;;;;;;13.82;9.75;;;5.40;75.70;;;;;;4971087;28;20684;-71
2023/01/30 11:08:20;;;;;;;11.15;8.20;;;5.40;76.00;;;;;;4970902;28;20698;-72
2023/01/30 11:10:47;;;;;;;11.90;9.07;;;5.50;76.10;;;;;;4970962;28;20212;-72
2023/01/30 11:13:18;;;;;;;12.60;8.98;;;5.40;75.90;;;;;;4970965;28;20679;-71
2023/01/30 11:15:48;;;;;;;10.50;8.18;;;5.50;76.00;;;;;;4970402;28;20228;-72
2023/01/30 11:18:17;;;;;;;12.18;8.40;;;5.60;75.80;;;;;;4971040;28;20299;-71
2023/01/30 11:20:46;;;;;;;13.88;8.55;;;5.50;75.70;;;;;;4971212;28;20315;-72
2023/01/30 11:23:25;;;;;;;13.27;9.20;;;5.60;75.80;;;;;;4970710;28;20236;-73
2023/01/30 11:25:55;;;;;;;11.77;8.05;;;5.60;75.80;;;;;;4970390;28;20274;-72
2023/01/30 11:28:25;;;;;;;14.65;9.80;;;5.50;76.10;;;;;;4970546;28;20212;-71
2023/01/30 11:30:57;;;;;;;12.82;8.15;;;5.40;76.90;;;;;;4970526;28;20215;-72
2023/01/30 11:33:31;;;;;;;10.80;7.82;;;5.40;77.00;;;;;;4970592;28;20335;-71
2023/01/30 11:36:00;;;;;;;12.93;8.52;;;5.40;77.50;;;;;;4970000;28;20762;-71
2023/01/30 11:38:30;;;;;;;13.77;9.13;;;5.30;78.00;;;;;;4970367;28;20208;-72
2023/01/30 11:41:06;;;;;;;13.50;9.52;;;5.30;78.50;;;;;;4970772;28;20213;-71
2023/01/30 11:43:36;;;;;;;12.15;8.32;;;5.30;78.90;;;;;;4970747;28;20208;-73
2023/01/30 11:46:04;;;;;;;13.18;9.13;;;5.50;78.70;;;;;;4969789;28;20209;-72
2023/01/30 11:48:34;;;;;;;14.05;9.43;;;5.60;78.70;;;;;;4970420;28;20213;-73
2023/01/30 11:51:03;;;;;;;15.57;9.27;;;5.50;78.60;;;;;;4970328;28;20209;-71
2023/01/30 11:53:35;;;;;;;14.07;9.85;;;5.40;79.20;;;;;;4970197;28;20662;-72
2023/01/30 11:56:08;;;;;;;12.38;9.10;;;5.50;79.60;;;;;;4970357;28;20238;-70
2023/01/30 11:58:39;;;;;;;13.82;10.38;;;5.50;79.30;;;;;;4970478;28;20215;-72
2023/01/30 12:01:09;;;;;;;12.63;8.52;;;5.40;79.90;;;;;;4969332;28;20243;-72
2023/01/30 12:03:47;;;;;;;14.10;10.48;;;5.30;80.10;;;;;;4970237;28;20215;-72
2023/01/30 12:06:22;;;;;;;12.05;8.35;;;5.40;80.10;;;;;;4969930;28;20216;-72
2023/01/30 12:08:53;;;;;;;14.60;9.82;;;5.40;80.00;;;;;;4970191;28;20208;-71
2023/01/30 12:11:30;;;;;;;12.73;9.30;;;5.50;79.80;;;;;;4971722;28;20585;-71
2023/01/30 12:14:13;;;;;;;15.05;9.82;;;5.40;79.50;;;;;;4969715;28;20295;-72
2023/01/30 12:16:51;;;;;;;13.48;9.40;;;5.40;79.80;;;;;;4969887;28;20232;-70
2023/01/30 12:19:31;;;;;;;14.45;9.80;;;5.30;80.00;;;;;;4970254;28;20250;-70
2023/01/30 12:22:04;;;;;;;14.15;9.18;;;5.30;80.00;;;;;;4969654;28;20212;-71
2023/01/30 12:24:39;;;;;;;12.57;9.77;;;5.40;79.80;;;;;;4970113;28;20288;-71
2023/01/30 12:27:13;;;;;;;13.82;9.52;;;5.40;79.70;;;;;;4969438;28;20379;-71
2023/01/30 12:29:54;;;;;;;14.15;10.27;;;5.40;79.60;;;;;;4970072;28;20204;-72
2023/01/30 12:32:25;;;;;;;13.93;10.00;;;5.40;79.50;;;;;;4970149;28;20236;-71
2023/01/30 12:34:52;;;;;;;12.93;9.57;;;5.40;80.00;;;;;;4969452;28;21021;-71
2023/01/30 12:37:34;;;;;;;16.15;10.80;;;5.40;79.70;;;;;;4969895;28;20212;-72
2023/01/30 12:40:09;;;;;;;12.48;9.85;;;5.50;79.70;;;;;;4969855;28;20287;-72
2023/01/30 12:43:06;;;;;;;13.02;9.55;;;5.50;79.40;;;;;;4969352;28;20219;-72
2023/01/30 12:45:39;;;;;;;14.20;10.60;;;5.50;79.10;;;;;;4961025;28;20669;-71
2023/01/30 12:48:33;;;;;;;15.38;10.45;;;5.40;79.40;;;;;;4969792;28;20209;-73
2023/01/30 12:51:09;;;;;;;14.25;10.43;;;5.50;79.50;;;;;;4969163;28;20214;-71
2023/01/30 12:53:48;;;;;;;16.40;10.52;;;5.40;79.80;;;;;;4919085;28;20207;-73
2023/01/30 12:56:34;;;;;;;14.70;10.00;;;5.50;79.70;;;;;;4969010;28;20742;-72
2023/01/30 12:59:08;;;;;;;13.60;9.93;;;5.40;79.90;;;;;;4981067;28;20189;-72
2023/01/30 13:01:44;;;;;;;14.43;10.02;;;5.50;79.70;;;;;;4994233;28;20275;-72
2023/01/30 13:04:56;;;;;;;15.02;10.65;;;5.40;79.40;;;;;;4981496;28;20204;-72
2023/01/30 13:07:33;;;;;;;14.20;9.55;;;5.30;79.70;;;;;;4968252;28;20220;-73